Time;durP1;ratioP1;P1;durP2;ratioP2;P2;SDS_P1;SDS_P2;PMS_P1;PMS_P2;Temp;Humidity;BMP_temperature;BMP_pressure;BME280_temperature;BME280_humidity;BME280_pressure;Samples;Min_cycle;Max_cycle;Signal;HPM_P1;HPM_P2
2022/11/16 00:00:24;;;;;;;7.38;6.68;;;12.60;99.90;;;;;;5039312;28;20141;-68
2022/11/16 00:02:52;;;;;;;7.95;6.47;;;12.70;99.90;;;;;;5056205;28;20432;-68
2022/11/16 00:05:18;;;;;;;8.85;6.65;;;12.70;99.90;;;;;;5056493;28;20343;-68
2022/11/16 00:07:44;;;;;;;10.48;6.53;;;12.60;99.90;;;;;;5056733;28;20044;-68
2022/11/16 00:10:10;;;;;;;7.95;6.60;;;12.50;99.90;;;;;;5056483;28;20033;-68
2022/11/16 00:12:37;;;;;;;11.02;7.20;;;12.40;99.90;;;;;;5056534;28;20021;-68
2022/11/16 00:15:05;;;;;;;8.93;6.20;;;12.40;99.90;;;;;;5055848;28;20355;-68
2022/11/16 00:17:32;;;;;;;10.02;6.28;;;12.40;99.90;;;;;;5056395;28;20043;-68
2022/11/16 00:19:58;;;;;;;8.13;6.75;;;12.40;99.90;;;;;;5055755;28;20025;-71
2022/11/16 00:22:23;;;;;;;8.30;6.30;;;12.40;99.90;;;;;;5056077;28;20052;-68
2022/11/16 00:24:49;;;;;;;7.65;6.50;;;12.40;99.90;;;;;;5022387;28;20045;-68
2022/11/16 00:27:15;;;;;;;7.47;6.38;;;12.40;99.90;;;;;;5042957;28;20120;-68
2022/11/16 00:29:41;;;;;;;7.40;6.15;;;12.50;99.90;;;;;;5060065;28;20305;-67
2022/11/16 00:32:07;;;;;;;6.63;5.97;;;12.50;99.90;;;;;;5059696;28;20029;-68
2022/11/16 00:34:33;;;;;;;6.72;6.13;;;12.60;99.90;;;;;;5059694;28;20063;-68
2022/11/16 00:36:58;;;;;;;7.03;5.97;;;12.70;99.90;;;;;;5059478;28;20041;-68
2022/11/16 00:39:25;;;;;;;10.48;6.60;;;12.70;99.90;;;;;;5059520;28;20036;-67
2022/11/16 00:41:50;;;;;;;8.57;5.63;;;12.70;99.90;;;;;;5059469;28;20029;-69
2022/11/16 00:44:17;;;;;;;6.15;5.03;;;12.80;99.90;;;;;;5042654;28;20098;-67
2022/11/16 00:46:43;;;;;;;4.80;4.30;;;12.60;99.90;;;;;;5042842;28;20052;-68
2022/11/16 00:49:09;;;;;;;4.47;4.03;;;12.70;99.90;;;;;;5042933;28;20392;-68
2022/11/16 00:51:36;;;;;;;5.20;3.63;;;12.70;99.90;;;;;;5042617;28;20025;-67
2022/11/16 00:54:03;;;;;;;4.07;3.17;;;12.70;99.90;;;;;;5042694;28;20094;-66
2022/11/16 00:56:31;;;;;;;3.55;3.03;;;12.60;99.90;;;;;;5058986;28;20036;-67
2022/11/16 00:58:57;;;;;;;4.90;3.28;;;12.50;99.90;;;;;;5042701;28;20269;-68
2022/11/16 01:01:23;;;;;;;3.42;2.65;;;12.40;99.90;;;;;;5059036;28;20052;-66
2022/11/16 01:03:50;;;;;;;3.70;2.92;;;12.40;99.90;;;;;;5042193;28;20159;-66
2022/11/16 01:06:16;;;;;;;5.07;3.35;;;12.50;99.90;;;;;;5059010;28;20033;-66
2022/11/16 01:08:43;;;;;;;4.75;3.05;;;12.40;99.90;;;;;;5058902;28;20032;-67
2022/11/16 01:13:57;;;;;;;4.05;2.72;;;12.20;99.90;;;;;;5059460;28;20086;-68
2022/11/16 01:16:23;;;;;;;4.22;2.60;;;12.20;99.90;;;;;;5058766;28;20335;-67
2022/11/16 01:18:51;;;;;;;3.17;2.55;;;12.10;99.90;;;;;;5059515;28;20025;-66
2022/11/16 01:21:18;;;;;;;3.47;1.90;;;12.00;99.90;;;;;;5058738;28;20111;-66
2022/11/16 01:23:44;;;;;;;1.73;1.42;;;12.00;99.90;;;;;;5059341;28;20048;-66
2022/11/16 01:26:11;;;;;;;2.72;2.20;;;12.00;99.90;;;;;;5042052;28;20021;-67
2022/11/16 01:28:38;;;;;;;4.15;2.20;;;11.90;99.90;;;;;;5042138;28;20041;-67
2022/11/16 01:31:06;;;;;;;3.45;2.17;;;11.90;99.90;;;;;;5025805;28;20064;-67
2022/11/16 01:33:35;;;;;;;2.20;1.50;;;11.90;99.90;;;;;;5058440;28;20333;-68
2022/11/16 01:36:01;;;;;;;4.30;1.92;;;11.90;99.90;;;;;;5057969;28;20029;-69
2022/11/16 01:38:27;;;;;;;2.03;1.40;;;11.90;99.90;;;;;;5058439;28;20308;-69
2022/11/16 01:40:52;;;;;;;3.28;1.60;;;11.90;99.90;;;;;;5058893;28;20048;-68
2022/11/16 01:43:22;;;;;;;1.98;1.38;;;12.00;99.90;;;;;;5041842;28;20037;-66
2022/11/16 01:45:49;;;;;;;3.72;1.50;;;12.00;99.90;;;;;;5058528;28;20120;-68
2022/11/16 01:48:24;;;;;;;1.50;1.40;;;11.90;99.90;;;;;;5058159;28;20079;-68
2022/11/16 01:50:50;;;;;;;2.15;1.50;;;11.90;99.90;;;;;;5058146;28;20048;-68
2022/11/16 01:53:17;;;;;;;2.85;1.50;;;11.90;99.90;;;;;;5058167;28;20033;-68
2022/11/16 01:55:48;;;;;;;2.83;1.60;;;11.90;99.90;;;;;;5042485;28;20281;-67
2022/11/16 01:58:23;;;;;;;1.77;1.60;;;11.80;99.90;;;;;;5058060;28;20114;-67
2022/11/16 02:00:55;;;;;;;3.08;1.30;;;11.80;99.90;;;;;;5057891;28;20099;-67
2022/11/16 02:03:31;;;;;;;2.28;1.67;;;11.60;99.90;;;;;;5057609;28;20143;-67
2022/11/16 02:06:23;;;;;;;1.48;1.38;;;11.50;99.90;;;;;;5024795;28;20124;-68
2022/11/16 02:12:41;;;;;;;3.45;1.40;;;11.60;99.90;;;;;;5057982;28;20033;-68
2022/11/16 02:15:28;;;;;;;2.22;1.20;;;11.50;99.90;;;;;;5058374;28;20025;-69
2022/11/16 02:18:28;;;;;;;2.47;1.00;;;11.50;99.90;;;;;;5057774;28;20066;-69
2022/11/16 02:21:09;;;;;;;4.18;1.33;;;11.50;99.90;;;;;;5057901;28;20044;-68
2022/11/16 02:23:54;;;;;;;5.32;1.40;;;11.50;99.90;;;;;;5057626;28;20071;-70
2022/11/16 02:26:41;;;;;;;3.13;1.02;;;11.50;99.90;;;;;;5057515;28;20288;-68
2022/11/16 02:29:16;;;;;;;3.47;1.10;;;11.40;99.90;;;;;;5058384;28;20032;-69
2022/11/16 02:31:48;;;;;;;1.33;1.08;;;11.30;99.90;;;;;;5057446;28;20104;-70
2022/11/16 02:34:16;;;;;;;2.40;1.23;;;11.30;99.90;;;;;;5058650;28;20112;-68
2022/11/16 02:36:45;;;;;;;5.13;1.25;;;11.30;99.90;;;;;;5057331;28;20036;-69
2022/11/16 02:39:17;;;;;;;3.13;1.40;;;11.30;99.90;;;;;;5057280;28;20037;-69
2022/11/16 02:41:47;;;;;;;3.80;1.58;;;11.30;99.90;;;;;;5057165;28;20347;-69
2022/11/16 02:44:25;;;;;;;2.80;1.55;;;11.40;99.90;;;;;;5057175;28;20029;-69
2022/11/16 02:46:56;;;;;;;2.83;1.38;;;11.50;99.90;;;;;;5040669;28;20067;-71
2022/11/16 02:49:24;;;;;;;4.13;1.30;;;11.50;99.90;;;;;;5056161;28;20047;-67
2022/11/16 02:51:51;;;;;;;1.88;1.23;;;11.40;99.90;;;;;;5057068;28;20040;-70
2022/11/16 02:54:21;;;;;;;3.33;1.25;;;11.30;99.90;;;;;;5056989;28;20270;-67
2022/11/16 02:57:27;;;;;;;7.17;1.53;;;11.30;99.90;;;;;;5057065;28;20331;-69
2022/11/16 02:59:56;;;;;;;2.58;1.38;;;11.30;99.90;;;;;;5026015;28;20114;-70
2022/11/16 03:02:59;;;;;;;5.57;1.60;;;11.30;99.90;;;;;;5040507;28;20032;-69
2022/11/16 03:05:47;;;;;;;4.65;1.52;;;11.20;99.90;;;;;;5056917;28;20029;-69
2022/11/16 03:08:19;;;;;;;4.63;1.30;;;11.20;99.90;;;;;;5056790;28;20444;-69
2022/11/16 03:13:39;;;;;;;3.20;1.35;;;11.20;99.90;;;;;;5056595;28;20582;-69
2022/11/16 03:16:37;;;;;;;3.45;1.38;;;11.10;99.90;;;;;;5057394;28;20131;-69
2022/11/16 03:19:11;;;;;;;3.20;1.60;;;11.10;99.90;;;;;;5026433;28;20061;-69
2022/11/16 03:21:50;;;;;;;3.50;1.10;;;11.00;99.90;;;;;;5040018;28;20032;-68
2022/11/16 03:24:19;;;;;;;3.55;1.48;;;11.00;99.90;;;;;;5039971;28;20090;-69
2022/11/16 03:26:58;;;;;;;4.95;1.35;;;11.00;99.90;;;;;;5056319;28;20063;-68
2022/11/16 03:29:35;;;;;;;3.88;1.25;;;10.90;99.90;;;;;;5057039;28;20017;-68
2022/11/16 03:32:16;;;;;;;4.07;1.20;;;10.90;99.90;;;;;;5056020;28;20261;-67
2022/11/16 03:34:49;;;;;;;5.68;1.25;;;11.00;99.90;;;;;;5039469;28;20358;-68
2022/11/16 03:37:16;;;;;;;7.03;1.10;;;10.90;99.90;;;;;;5056108;28;20107;-68
2022/11/16 03:39:43;;;;;;;3.65;1.10;;;10.80;99.90;;;;;;5056900;28;20033;-69
2022/11/16 03:42:15;;;;;;;6.93;1.30;;;10.80;99.90;;;;;;5039541;28;20080;-67
2022/11/16 03:44:44;;;;;;;4.32;1.20;;;10.80;99.90;;;;;;5055906;28;20021;-67
2022/11/16 03:47:11;;;;;;;5.88;1.25;;;10.70;99.90;;;;;;5056594;28;20025;-68
2022/11/16 03:49:37;;;;;;;4.88;1.27;;;10.70;99.90;;;;;;5055970;28;20296;-67
2022/11/16 03:52:03;;;;;;;3.72;1.15;;;10.70;99.90;;;;;;5039814;28;20036;-68
2022/11/16 03:54:31;;;;;;;4.95;1.17;;;10.70;99.90;;;;;;5055960;28;20127;-68
2022/11/16 03:56:56;;;;;;;3.90;1.30;;;10.70;99.90;;;;;;5055874;28;20177;-67
2022/11/16 03:59:22;;;;;;;6.88;1.20;;;10.80;99.90;;;;;;5039430;28;20037;-68
2022/11/16 04:01:48;;;;;;;4.88;1.10;;;10.80;99.90;;;;;;5056582;28;20037;-68
2022/11/16 04:24:11;;;;;;;3.17;1.10;;;10.80;99.90;;;;;;5039051;28;20132;-68
2022/11/16 04:26:13;;;;;;;7.05;1.65;;;10.50;99.90;;;;;;5055725;28;20067;-68
2022/11/16 04:28:40;;;;;;;5.78;1.60;;;10.50;99.90;;;;;;5039006;28;20032;-68
2022/11/16 04:39:31;;;;;;;9.02;1.90;;;10.40;99.90;;;;;;5041695;28;20431;-68
2022/11/16 04:42:16;;;;;;;8.10;2.17;;;10.30;99.90;;;;;;5055428;28;20037;-68
2022/11/16 04:47:39;;;;;;;4.90;2.13;;;10.10;99.90;;;;;;5055248;28;20041;-68
2022/11/16 04:50:05;;;;;;;7.18;1.67;;;10.10;99.90;;;;;;5038824;28;20048;-68
2022/11/16 04:52:31;;;;;;;7.00;2.20;;;10.10;99.90;;;;;;5055995;28;20021;-68
2022/11/16 04:54:57;;;;;;;7.00;2.33;;;10.10;99.90;;;;;;5038594;28;20034;-68
2022/11/16 04:57:23;;;;;;;4.57;2.10;;;10.00;99.90;;;;;;5055366;28;20032;-68
2022/11/16 04:59:49;;;;;;;6.50;2.50;;;10.00;99.90;;;;;;5055316;28;20041;-68
2022/11/16 05:02:16;;;;;;;8.85;2.20;;;9.90;99.90;;;;;;5055414;28;20083;-68
2022/11/16 05:04:47;;;;;;;6.10;2.60;;;9.90;99.90;;;;;;5055126;28;20075;-68
2022/11/16 05:07:14;;;;;;;6.90;2.50;;;9.90;99.90;;;;;;5055293;28;20033;-70
2022/11/16 05:09:44;;;;;;;8.73;2.50;;;9.90;99.90;;;;;;5038780;28;20051;-69
2022/11/16 05:12:22;;;;;;;6.57;2.70;;;9.80;99.90;;;;;;5040837;28;20033;-69
2022/11/16 05:14:52;;;;;;;7.93;2.67;;;9.80;99.90;;;;;;5042708;28;20273;-69
2022/11/16 05:17:18;;;;;;;4.80;2.28;;;9.80;99.90;;;;;;5059023;28;20033;-69
2022/11/16 05:22:56;;;;;;;7.25;2.08;;;9.80;99.90;;;;;;5024810;28;20051;-69
2022/11/16 05:25:25;;;;;;;10.00;3.05;;;9.80;99.90;;;;;;5058592;28;20095;-69
2022/11/16 05:27:52;;;;;;;6.18;2.63;;;9.70;99.90;;;;;;5058596;28;20021;-69
2022/11/16 05:30:18;;;;;;;9.77;3.28;;;9.70;99.90;;;;;;5058620;28;20033;-68
2022/11/16 05:32:44;;;;;;;6.53;2.90;;;9.70;99.90;;;;;;5058360;28;20033;-70
2022/11/16 05:35:11;;;;;;;8.82;2.85;;;9.60;99.90;;;;;;5042119;28;20040;-69
2022/11/16 05:37:37;;;;;;;9.20;3.17;;;9.60;99.90;;;;;;5058393;28;20033;-69
2022/11/16 05:40:03;;;;;;;20.10;12.07;;;9.60;99.90;;;;;;5058442;28;20048;-69
2022/11/16 05:42:58;;;;;;;10.70;3.38;;;9.60;99.90;;;;;;5051726;28;20104;-69
2022/11/16 05:45:26;;;;;;;9.40;3.25;;;9.70;99.90;;;;;;5042063;28;20029;-70
2022/11/16 05:47:52;;;;;;;10.23;2.78;;;9.60;99.90;;;;;;5041929;28;20037;-70
2022/11/16 05:50:18;;;;;;;7.82;2.83;;;9.60;99.90;;;;;;5025209;28;20045;-70
2022/11/16 05:52:58;;;;;;;10.50;2.90;;;9.50;99.90;;;;;;5043337;28;20033;-69
2022/11/16 05:55:24;;;;;;;7.47;2.55;;;9.50;99.90;;;;;;5041377;28;20044;-69
2022/11/16 05:57:50;;;;;;;12.32;3.30;;;9.40;99.90;;;;;;5058711;28;20079;-69
2022/11/16 06:00:16;;;;;;;7.45;2.85;;;9.40;99.90;;;;;;5058400;28;20074;-69
2022/11/16 06:02:46;;;;;;;9.48;2.90;;;9.40;99.90;;;;;;5041958;28;20025;-69
2022/11/16 06:05:19;;;;;;;7.65;2.85;;;9.40;99.90;;;;;;5057934;28;20057;-73
2022/11/16 06:07:46;;;;;;;13.50;2.97;;;9.40;99.90;;;;;;5041443;28;20354;-70
2022/11/16 06:10:12;;;;;;;8.88;2.75;;;9.40;99.90;;;;;;5058732;28;20037;-70
2022/11/16 06:12:42;;;;;;;8.93;3.00;;;9.40;99.90;;;;;;5041923;28;20102;-70
2022/11/16 06:15:08;;;;;;;8.93;2.63;;;9.40;99.90;;;;;;5041270;28;20037;-70
2022/11/16 06:17:34;;;;;;;8.95;2.70;;;9.40;99.90;;;;;;5058391;28;20385;-70
2022/11/16 06:20:00;;;;;;;14.30;3.55;;;9.30;99.90;;;;;;5041904;28;20025;-70
2022/11/16 06:22:26;;;;;;;10.02;2.80;;;9.30;99.90;;;;;;5026590;28;20051;-70
2022/11/16 06:24:55;;;;;;;6.90;2.70;;;9.30;99.90;;;;;;5044074;28;20040;-74
2022/11/16 06:27:26;;;;;;;10.90;2.60;;;9.30;99.90;;;;;;5042736;28;20032;-72
2022/11/16 06:29:52;;;;;;;10.68;2.65;;;9.20;99.90;;;;;;5042173;28;20290;-69
2022/11/16 06:32:19;;;;;;;7.45;3.10;;;9.20;99.90;;;;;;5059070;28;20040;-70
2022/11/16 06:34:45;;;;;;;7.78;2.80;;;9.20;99.90;;;;;;5025230;28;20059;-69
2022/11/16 06:37:11;;;;;;;15.00;3.10;;;9.20;99.90;;;;;;5057991;28;20032;-69
2022/11/16 06:39:37;;;;;;;12.55;3.08;;;9.10;99.90;;;;;;5042389;28;20288;-70
2022/11/16 06:42:03;;;;;;;13.90;3.17;;;9.10;99.90;;;;;;5058730;28;20047;-70
2022/11/16 06:44:29;;;;;;;14.98;2.85;;;9.10;99.90;;;;;;5024988;28;20036;-73
2022/11/16 06:46:59;;;;;;;8.23;2.25;;;9.10;99.90;;;;;;5041821;28;20278;-69
2022/11/16 06:49:25;;;;;;;11.07;2.42;;;9.10;99.90;;;;;;5040936;28;20044;-69
2022/11/16 06:51:55;;;;;;;7.32;2.65;;;9.10;99.90;;;;;;5041136;28;20056;-71
2022/11/16 06:54:20;;;;;;;11.85;3.45;;;9.10;99.90;;;;;;5056884;28;20059;-68
2022/11/16 06:56:46;;;;;;;10.02;2.97;;;9.10;99.90;;;;;;5057828;28;20392;-69
2022/11/16 06:59:12;;;;;;;10.43;2.60;;;9.10;99.90;;;;;;5056941;28;20033;-71
2022/11/16 07:01:38;;;;;;;8.82;2.28;;;9.10;99.90;;;;;;5040104;28;20029;-70
2022/11/16 07:04:10;;;;;;;11.02;2.15;;;9.10;99.90;;;;;;5040623;28;20140;-69
2022/11/16 07:06:38;;;;;;;13.02;3.38;;;9.10;99.90;;;;;;5040159;28;20079;-71
2022/11/16 07:09:08;;;;;;;11.25;2.63;;;9.00;99.90;;;;;;5023665;28;20090;-69
2022/11/16 07:11:36;;;;;;;14.27;2.90;;;9.00;99.90;;;;;;5039884;28;20036;-68
2022/11/16 07:14:02;;;;;;;5.80;2.40;;;9.00;99.90;;;;;;5023193;28;20037;-68
2022/11/16 07:16:29;;;;;;;14.02;3.00;;;9.00;99.90;;;;;;5056575;28;20040;-70
2022/11/16 07:18:58;;;;;;;6.25;2.03;;;9.00;99.90;;;;;;5040557;28;20092;-70
2022/11/16 07:21:26;;;;;;;14.52;2.50;;;9.00;99.90;;;;;;5056469;28;20029;-69
2022/11/16 07:23:54;;;;;;;13.63;2.60;;;9.00;99.90;;;;;;5040030;28;20041;-71
2022/11/16 07:26:21;;;;;;;9.23;2.65;;;9.00;99.90;;;;;;5039773;28;20036;-71
2022/11/16 07:28:52;;;;;;;11.93;2.00;;;9.00;99.90;;;;;;5040611;28;20317;-69
2022/11/16 07:31:20;;;;;;;12.00;2.65;;;9.00;99.90;;;;;;5056290;28;20296;-69
2022/11/16 07:34:03;;;;;;;10.00;2.47;;;9.00;99.90;;;;;;5055999;28;20063;-69
2022/11/16 07:36:52;;;;;;;9.50;2.17;;;9.00;99.90;;;;;;5056284;28;20101;-69
2022/11/16 07:39:18;;;;;;;10.15;2.30;;;9.00;99.90;;;;;;5056755;28;20036;-69
2022/11/16 07:41:45;;;;;;;10.48;2.50;;;9.10;99.90;;;;;;5056536;28;20025;-70
2022/11/16 07:44:24;;;;;;;12.45;3.22;;;9.10;99.90;;;;;;5027577;28;20033;-69
2022/11/16 07:47:02;;;;;;;10.05;2.25;;;9.10;99.90;;;;;;5056500;28;20029;-68
2022/11/16 07:49:30;;;;;;;8.70;1.90;;;9.10;99.90;;;;;;5056872;28;20036;-70
2022/11/16 07:52:02;;;;;;;9.75;2.63;;;9.10;99.90;;;;;;5040591;28;20047;-70
2022/11/16 07:54:46;;;;;;;11.10;2.67;;;9.20;99.90;;;;;;5056839;28;20450;-69
2022/11/16 07:57:13;;;;;;;11.77;2.60;;;9.20;99.90;;;;;;5039910;28;20431;-70
2022/11/16 07:59:40;;;;;;;10.85;2.50;;;9.20;99.90;;;;;;5039734;28;20068;-70
2022/11/16 08:02:08;;;;;;;8.73;2.75;;;9.20;99.90;;;;;;5023212;28;20049;-71
2022/11/16 08:04:33;;;;;;;13.77;2.58;;;9.20;99.90;;;;;;5039419;28;20055;-70
2022/11/16 08:06:59;;;;;;;10.43;2.85;;;9.20;99.90;;;;;;5022988;28;20127;-70
2022/11/16 08:09:30;;;;;;;7.60;2.28;;;9.20;99.90;;;;;;5056068;28;20033;-70
2022/11/16 08:11:57;;;;;;;11.13;3.13;;;9.30;99.90;;;;;;5023132;28;20036;-71
2022/11/16 08:14:23;;;;;;;8.70;2.50;;;9.30;99.90;;;;;;5055866;28;20033;-71
2022/11/16 08:16:51;;;;;;;13.13;2.50;;;9.40;99.90;;;;;;5055883;28;20029;-71
2022/11/16 08:19:17;;;;;;;10.65;2.50;;;9.40;99.90;;;;;;5039472;28;20094;-71
2022/11/16 08:21:44;;;;;;;8.27;1.92;;;9.50;99.90;;;;;;5055986;28;20039;-71
2022/11/16 08:24:11;;;;;;;11.68;2.28;;;9.50;99.90;;;;;;5039750;28;20035;-71
2022/11/16 08:26:40;;;;;;;10.10;2.30;;;9.50;99.90;;;;;;5023721;28;20440;-72
2022/11/16 08:29:10;;;;;;;9.70;2.28;;;9.60;99.90;;;;;;5024025;28;20116;-72
2022/11/16 08:31:39;;;;;;;10.90;2.38;;;9.60;99.90;;;;;;5055902;28;20033;-72
2022/11/16 08:34:10;;;;;;;8.45;2.05;;;9.60;99.90;;;;;;5055871;28;20057;-72
2022/11/16 08:36:39;;;;;;;11.40;2.10;;;9.60;99.90;;;;;;5039865;28;20427;-71
2022/11/16 08:39:05;;;;;;;7.72;2.20;;;9.60;99.90;;;;;;5039422;28;20120;-71
2022/11/16 08:41:34;;;;;;;8.65;2.42;;;9.70;99.90;;;;;;5039525;28;20120;-72
2022/11/16 08:44:01;;;;;;;12.50;2.47;;;9.70;99.90;;;;;;5055908;28;20059;-71
2022/11/16 08:46:29;;;;;;;12.93;2.60;;;9.80;99.90;;;;;;5040669;28;20245;-71
2022/11/16 08:49:07;;;;;;;7.03;1.90;;;9.80;99.90;;;;;;5045048;28;20043;-68
2022/11/16 08:51:33;;;;;;;7.75;1.83;;;9.90;99.90;;;;;;5059566;28;20368;-69
2022/11/16 08:54:04;;;;;;;8.77;1.70;;;9.90;99.90;;;;;;5043287;28;20041;-70
2022/11/16 08:56:31;;;;;;;6.40;1.92;;;10.00;99.90;;;;;;5042954;28;20127;-70
2022/11/16 08:58:57;;;;;;;8.43;1.92;;;10.00;99.90;;;;;;5042794;28;20409;-72
2022/11/16 09:01:25;;;;;;;10.82;1.98;;;10.00;99.90;;;;;;5042859;28;20037;-71
2022/11/16 09:03:51;;;;;;;7.60;2.10;;;10.10;99.90;;;;;;5059263;28;20045;-71
2022/11/16 09:06:17;;;;;;;9.93;1.85;;;10.10;99.90;;;;;;5059826;28;20309;-70
2022/11/16 09:08:45;;;;;;;6.07;1.98;;;10.20;99.90;;;;;;5042738;28;20036;-70
2022/11/16 09:11:17;;;;;;;8.77;1.92;;;10.30;99.90;;;;;;5059998;28;20040;-73
2022/11/16 09:13:44;;;;;;;6.93;1.57;;;10.30;99.90;;;;;;5059277;28;20025;-72
2022/11/16 09:16:10;;;;;;;14.25;1.98;;;10.30;99.90;;;;;;5042472;28;20296;-71
2022/11/16 09:18:36;;;;;;;9.23;2.13;;;10.40;99.90;;;;;;5059100;28;20091;-71
2022/11/16 09:21:02;;;;;;;7.47;1.85;;;10.40;99.90;;;;;;5042461;28;20396;-72
2022/11/16 09:23:28;;;;;;;6.97;1.98;;;10.50;99.90;;;;;;5059922;28;20120;-71
2022/11/16 09:25:54;;;;;;;9.45;1.70;;;10.60;99.90;;;;;;5042669;28;20306;-72
2022/11/16 09:28:21;;;;;;;7.68;2.10;;;10.70;99.90;;;;;;5059885;28;20037;-70
2022/11/16 09:30:49;;;;;;;8.15;1.90;;;10.70;99.90;;;;;;5059836;28;20120;-69
2022/11/16 09:33:16;;;;;;;10.75;1.60;;;10.70;99.90;;;;;;5059486;28;20119;-70
2022/11/16 09:35:41;;;;;;;8.20;1.75;;;10.80;99.90;;;;;;5059303;28;20029;-71
2022/11/16 09:38:10;;;;;;;5.75;1.23;;;10.90;99.90;;;;;;5059162;28;20048;-71
2022/11/16 09:40:39;;;;;;;7.22;1.88;;;11.10;99.90;;;;;;5058859;28;20035;-70
2022/11/16 09:43:18;;;;;;;5.30;1.55;;;11.30;99.90;;;;;;5058759;28;20081;-69
2022/11/16 09:46:28;;;;;;;7.32;1.58;;;11.30;99.90;;;;;;5058620;28;20125;-69
2022/11/16 09:48:56;;;;;;;7.45;1.40;;;11.40;99.90;;;;;;5056314;28;20049;-69
2022/11/16 09:51:25;;;;;;;7.00;1.30;;;11.50;99.90;;;;;;5059348;28;20029;-70
2022/11/16 09:54:05;;;;;;;8.18;1.65;;;11.70;99.90;;;;;;5058963;28;20365;-68
2022/11/16 09:56:35;;;;;;;7.15;1.30;;;11.70;99.90;;;;;;5059089;28;20025;-69
2022/11/16 09:59:07;;;;;;;5.32;1.48;;;11.50;99.90;;;;;;5041368;28;20040;-69
2022/11/16 10:02:06;;;;;;;4.75;1.23;;;11.30;99.90;;;;;;5058282;28;20060;-69
2022/11/16 10:04:35;;;;;;;5.10;1.42;;;11.40;99.90;;;;;;5058212;28;20087;-69
2022/11/16 10:07:14;;;;;;;5.97;1.55;;;11.30;99.90;;;;;;5058069;28;20067;-70
2022/11/16 10:09:41;;;;;;;6.10;1.55;;;11.40;99.90;;;;;;5058216;28;20029;-68
2022/11/16 10:12:13;;;;;;;7.13;1.33;;;11.30;99.90;;;;;;5058772;28;20048;-69
2022/11/16 10:15:00;;;;;;;6.37;1.40;;;11.20;99.90;;;;;;5041236;28;20044;-70
2022/11/16 10:17:41;;;;;;;6.78;1.83;;;11.40;99.90;;;;;;5058636;28;20029;-68
2022/11/16 10:20:34;;;;;;;7.47;1.58;;;11.50;99.90;;;;;;5057881;28;20021;-68
2022/11/16 10:23:14;;;;;;;9.30;1.60;;;11.50;99.90;;;;;;5058861;28;20021;-68
2022/11/16 10:25:45;;;;;;;8.85;1.70;;;11.60;99.90;;;;;;5041191;28;20098;-68
2022/11/16 10:28:26;;;;;;;6.93;1.40;;;11.50;99.90;;;;;;5057682;28;20095;-69
2022/11/16 10:31:06;;;;;;;6.18;1.30;;;11.60;99.90;;;;;;5058232;28;20319;-69
2022/11/16 10:33:35;;;;;;;8.82;1.60;;;11.50;99.90;;;;;;5058404;28;20396;-69
2022/11/16 10:36:11;;;;;;;7.75;1.40;;;11.50;99.90;;;;;;5057317;28;20033;-69
2022/11/16 10:38:39;;;;;;;6.00;1.40;;;11.50;99.90;;;;;;5041007;28;20021;-69
2022/11/16 10:41:17;;;;;;;6.50;1.60;;;11.50;99.90;;;;;;5058388;28;20029;-70
2022/11/16 10:43:44;;;;;;;9.57;1.60;;;11.80;99.90;;;;;;5057580;28;20025;-69
2022/11/16 10:46:29;;;;;;;4.38;1.38;;;12.00;99.90;;;;;;5040641;28;20025;-69
2022/11/16 10:49:33;;;;;;;7.97;1.65;;;12.40;99.90;;;;;;5057930;28;20072;-69
2022/11/16 10:51:58;;;;;;;;;;;12.60;99.90;;;;;;5057630;28;20037;-69
2022/11/16 10:54:24;;;;;;;4.70;1.15;;;12.70;99.90;;;;;;5057861;28;19916;-69
2022/11/16 10:57:12;;;;;;;6.22;1.10;;;12.80;99.90;;;;;;5056886;28;20033;-70
2022/11/16 10:59:39;;;;;;;11.05;1.90;;;12.90;99.90;;;;;;5057115;28;20316;-70
2022/11/16 11:02:23;;;;;;;7.22;1.50;;;12.70;99.90;;;;;;5056731;28;20029;-70
2022/11/16 11:05:16;;;;;;;6.60;1.85;;;12.80;99.90;;;;;;5056703;28;20061;-69
2022/11/16 11:07:50;;;;;;;7.07;1.27;;;13.00;99.90;;;;;;5056774;28;20040;-69
2022/11/16 11:10:35;;;;;;;6.63;1.52;;;12.50;99.90;;;;;;5056251;28;20041;-67
2022/11/16 11:13:10;;;;;;;8.35;1.65;;;12.10;99.90;;;;;;5056462;28;20029;-70
2022/11/16 11:15:41;;;;;;;6.05;1.35;;;11.90;99.90;;;;;;5057558;28;20036;-68
2022/11/16 11:18:22;;;;;;;11.85;1.48;;;11.90;99.90;;;;;;5057022;28;20025;-68
2022/11/16 11:21:04;;;;;;;6.75;1.23;;;12.00;99.90;;;;;;5056723;28;20029;-70
2022/11/16 11:23:36;;;;;;;9.48;1.35;;;12.10;99.90;;;;;;5057034;28;20039;-69
2022/11/16 11:26:02;;;;;;;8.00;1.50;;;12.20;99.90;;;;;;5058067;28;20033;-70
2022/11/16 11:28:30;;;;;;;6.13;1.75;;;12.20;99.90;;;;;;5040044;28;20047;-70
2022/11/16 11:31:08;;;;;;;7.68;1.58;;;12.10;99.90;;;;;;5040201;28;20029;-68
2022/11/16 11:33:46;;;;;;;8.95;1.67;;;12.20;99.90;;;;;;5057686;28;20419;-68
2022/11/16 11:36:19;;;;;;;9.40;2.25;;;12.30;99.90;;;;;;5057450;28;20041;-68
2022/11/16 11:39:11;;;;;;;6.50;1.92;;;12.20;99.90;;;;;;5057397;28;20094;-70
2022/11/16 11:41:42;;;;;;;6.97;1.65;;;12.50;99.90;;;;;;5025009;28;20052;-69
2022/11/16 11:44:19;;;;;;;8.10;1.90;;;12.80;99.90;;;;;;5057894;28;20029;-69
2022/11/16 11:46:53;;;;;;;6.68;1.70;;;13.00;99.90;;;;;;5056394;28;20078;-70
2022/11/16 11:49:28;;;;;;;4.00;1.40;;;13.00;99.90;;;;;;5039707;28;20032;-68
2022/11/16 11:51:58;;;;;;;11.85;1.83;;;12.80;99.90;;;;;;5057271;28;20114;-70
2022/11/16 11:54:32;;;;;;;9.32;1.50;;;12.70;99.90;;;;;;5056935;28;20288;-69
2022/11/16 11:56:59;;;;;;;5.32;1.45;;;12.40;99.90;;;;;;5056060;28;20302;-71
2022/11/16 11:59:26;;;;;;;6.97;1.40;;;12.50;99.90;;;;;;5056276;28;20029;-69
2022/11/16 12:02:23;;;;;;;9.65;1.45;;;12.50;99.90;;;;;;5056889;28;20040;-71
2022/11/16 12:05:07;;;;;;;9.25;1.80;;;12.70;99.90;;;;;;5047262;28;20080;-70
2022/11/16 12:07:54;;;;;;;5.95;1.20;;;13.00;99.90;;;;;;5056151;28;20029;-70
2022/11/16 12:10:26;;;;;;;8.13;1.45;;;13.00;99.90;;;;;;5056786;28;20324;-68
2022/11/16 12:13:06;;;;;;;8.45;1.38;;;13.00;99.90;;;;;;5056088;28;20044;-69
2022/11/16 12:15:41;;;;;;;6.38;1.23;;;12.90;99.90;;;;;;5056178;28;20029;-70
2022/11/16 12:18:33;;;;;;;9.35;1.40;;;13.00;99.90;;;;;;5039359;28;20083;-69
2022/11/16 12:21:21;;;;;;;6.72;1.40;;;13.00;99.90;;;;;;5057944;28;20100;-68
2022/11/16 12:24:29;;;;;;;8.90;1.42;;;12.90;99.90;;;;;;5060804;28;20043;-68
2022/11/16 12:27:01;;;;;;;7.40;1.30;;;12.70;99.90;;;;;;5039613;28;20036;-69
2022/11/16 12:29:41;;;;;;;4.60;1.20;;;12.70;99.90;;;;;;5060591;28;20132;-69
2022/11/16 12:32:35;;;;;;;7.13;1.10;;;12.60;99.90;;;;;;5059808;28;20044;-69
2022/11/16 12:35:32;;;;;;;4.53;1.38;;;12.50;99.90;;;;;;5060499;28;20040;-69
2022/11/16 12:38:16;;;;;;;6.53;1.50;;;12.50;99.90;;;;;;5060654;28;20293;-69
2022/11/16 12:40:56;;;;;;;9.30;1.60;;;12.70;99.90;;;;;;5060648;28;20083;-69
2022/11/16 12:43:34;;;;;;;7.70;1.25;;;12.70;99.90;;;;;;5059879;28;20033;-69
2022/11/16 12:46:04;;;;;;;6.20;1.40;;;12.70;99.90;;;;;;5060461;28;20040;-69
2022/11/16 12:49:01;;;;;;;6.90;1.20;;;12.50;99.90;;;;;;5059837;28;20074;-69
2022/11/16 12:51:33;;;;;;;8.90;1.48;;;12.40;99.90;;;;;;5060255;28;20029;-69
2022/11/16 12:54:11;;;;;;;9.73;1.60;;;12.30;99.90;;;;;;5059485;28;20037;-70
2022/11/16 12:56:48;;;;;;;8.70;1.50;;;12.30;99.90;;;;;;5059622;28;20039;-69
2022/11/16 12:59:48;;;;;;;7.43;1.35;;;12.30;99.90;;;;;;5059407;28;20120;-69
2022/11/16 13:02:25;;;;;;;11.52;1.73;;;12.40;99.90;;;;;;5059992;28;20029;-70
2022/11/16 13:05:02;;;;;;;13.63;1.80;;;12.30;99.90;;;;;;5059217;28;20072;-70
2022/11/16 13:07:43;;;;;;;8.55;2.00;;;12.30;99.90;;;;;;5060110;28;20123;-71
2022/11/16 13:10:19;;;;;;;8.82;1.98;;;12.40;99.90;;;;;;5059335;28;20368;-70
2022/11/16 13:12:49;;;;;;;12.00;2.30;;;12.50;99.90;;;;;;5059244;28;20033;-69
2022/11/16 13:15:18;;;;;;;7.45;1.77;;;12.80;99.90;;;;;;5059964;28;20354;-70
2022/11/16 13:17:59;;;;;;;6.63;1.60;;;12.80;99.90;;;;;;5059207;28;20116;-68
2022/11/16 13:20:46;;;;;;;7.55;1.92;;;12.60;99.90;;;;;;5059841;28;20025;-69
2022/11/16 13:23:24;;;;;;;7.32;1.60;;;12.60;99.90;;;;;;5059722;28;20155;-70
2022/11/16 13:25:55;;;;;;;7.15;1.45;;;12.60;99.90;;;;;;5059101;28;20029;-70
2022/11/16 13:28:32;;;;;;;5.65;1.20;;;12.60;99.90;;;;;;5059003;28;20037;-70
2022/11/16 13:31:30;;;;;;;9.00;1.60;;;12.60;99.90;;;;;;5042389;28;20032;-70
2022/11/16 13:34:01;;;;;;;11.02;1.33;;;12.60;99.90;;;;;;5050344;28;20036;-68
2022/11/16 13:36:36;;;;;;;7.38;1.25;;;12.60;99.90;;;;;;5059597;28;20033;-68
2022/11/16 13:39:03;;;;;;;4.00;1.08;;;12.50;99.90;;;;;;5058622;28;20025;-68
2022/11/16 13:41:34;;;;;;;5.68;1.00;;;12.50;99.90;;;;;;5042194;28;20032;-69
2022/11/16 13:44:01;;;;;;;10.25;1.48;;;12.70;99.90;;;;;;5058555;28;20037;-69
2022/11/16 13:47:03;;;;;;;7.22;1.75;;;12.80;99.90;;;;;;5059255;28;20032;-68
2022/11/16 13:49:39;;;;;;;6.05;1.45;;;12.70;99.90;;;;;;5058395;28;20158;-68
2022/11/16 13:52:11;;;;;;;10.15;1.58;;;12.70;99.90;;;;;;5058299;28;20032;-67
2022/11/16 13:54:42;;;;;;;5.93;1.40;;;12.50;99.90;;;;;;5059525;28;20139;-67
2022/11/16 13:57:30;;;;;;;6.18;1.40;;;12.50;99.90;;;;;;5059414;28;20293;-69